Time;durP1;ratioP1;P1;durP2;ratioP2;P2;SDS_P1;SDS_P2;PMS_P1;PMS_P2;Temp;Humidity;BMP_temperature;BMP_pressure;BME280_temperature;BME280_humidity;BME280_pressure;Samples;Min_cycle;Max_cycle;Signal;HPM_P1;HPM_P2
2023/02/16 00:03:36;;;;;;;121.70;42.60;;;;;;;5.58;95.30;101213.00;673360;1264;139083;-90
2023/02/16 00:18:40;;;;;;;106.10;37.30;;;;;;;5.60;94.72;101200.41;673801;1274;139405;-90
2023/02/16 00:33:43;;;;;;;131.40;43.80;;;;;;;5.48;95.49;101184.67;673535;1265;138629;-89
2023/02/16 00:48:46;;;;;;;111.00;39.20;;;;;;;5.49;95.42;101177.34;674683;1263;138637;-91
2023/02/16 01:03:50;;;;;;;126.50;43.80;;;;;;;5.36;96.70;101160.37;674023;1259;140352;-89
2023/02/16 01:18:53;;;;;;;117.30;41.10;;;;;;;5.34;96.77;101140.84;673769;1265;139516;-89
2023/02/16 01:33:57;;;;;;;102.80;35.40;;;;;;;5.36;96.21;101118.70;673503;1263;139490;-89
2023/02/16 01:49:00;;;;;;;108.30;42.30;;;;;;;5.36;96.40;101091.30;672049;1265;138619;-88
2023/02/16 02:20:12;;;;;;;122.40;46.60;;;;;;;5.08;97.68;101048.05;675078;1266;139163;-89
2023/02/16 02:35:22;;;;;;;113.20;42.00;;;;;;;5.00;98.27;101040.14;675620;1264;139275;-90
2023/02/16 03:06:30;;;;;;;125.90;44.10;;;;;;;4.83;99.36;101003.90;674413;1266;139139;-89
2023/02/16 03:36:58;;;;;;;137.20;45.90;;;;;;;4.82;98.99;100978.84;674896;1263;139351;-89
2023/02/16 03:52:02;;;;;;;127.00;44.30;;;;;;;4.58;99.09;100966.42;674461;1265;139299;-88
2023/02/16 04:07:05;;;;;;;124.30;43.50;;;;;;;4.31;100.00;100952.02;673679;1265;139277;-89
2023/02/16 04:22:10;;;;;;;135.60;44.90;;;;;;;4.13;100.00;100934.90;674098;1264;140559;-89
2023/02/16 04:37:13;;;;;;;154.30;49.20;;;;;;;4.04;100.00;100925.00;673078;1260;139357;-89
2023/02/16 04:52:17;;;;;;;129.30;44.80;;;;;;;2.99;100.00;100919.44;673687;1265;138845;-89
2023/02/16 05:07:20;;;;;;;133.00;41.90;;;;;;;2.81;100.00;100917.17;679535;1264;139583;-89
2023/02/16 05:22:24;;;;;;;127.10;41.10;;;;;;;3.62;100.00;100914.23;678006;1264;138850;-88
2023/02/16 05:37:27;;;;;;;142.20;43.70;;;;;;;3.50;100.00;100911.02;673773;1269;139026;-88
2023/02/16 05:52:31;;;;;;;127.10;46.10;;;;;;;3.34;100.00;100905.57;673103;1269;138899;-90
2023/02/16 06:07:34;;;;;;;129.10;40.50;;;;;;;3.14;100.00;100899.77;675641;1260;139028;-90
2023/02/16 06:22:37;;;;;;;164.90;58.80;;;;;;;2.94;100.00;100893.92;673597;1263;138817;-89
2023/02/16 06:37:40;;;;;;;141.10;46.20;;;;;;;2.96;100.00;100893.88;675088;1263;139734;-89
2023/02/16 06:52:44;;;;;;;146.70;51.50;;;;;;;3.00;100.00;100894.52;674221;1264;140130;-90
2023/02/16 07:07:47;;;;;;;144.10;45.60;;;;;;;3.09;100.00;100883.41;674360;1260;138952;-89
2023/02/16 07:22:50;;;;;;;144.40;49.40;;;;;;;3.02;100.00;100863.33;674390;1264;138934;-89
2023/02/16 07:37:54;;;;;;;142.50;46.10;;;;;;;3.02;100.00;100854.02;673143;1266;139035;-89
2023/02/16 07:53:01;;;;;;;161.40;61.40;;;;;;;3.02;100.00;100848.45;674748;1262;138653;-89
2023/02/16 08:08:05;;;;;;;146.50;45.90;;;;;;;2.96;100.00;100847.04;674622;1263;137923;-89
2023/02/16 08:23:09;;;;;;;157.20;52.50;;;;;;;2.97;100.00;100850.25;673652;1263;138939;-89
2023/02/16 08:38:12;;;;;;;142.00;46.50;;;;;;;2.96;100.00;100835.61;675162;1260;139010;-91
2023/02/16 08:53:15;;;;;;;137.60;49.80;;;;;;;3.35;100.00;100834.80;674818;1259;140569;-90
2023/02/16 09:08:19;;;;;;;165.70;60.00;;;;;;;3.59;100.00;100823.90;675400;1266;139109;-91
2023/02/16 09:23:22;;;;;;;157.60;54.10;;;;;;;3.91;100.00;100829.39;675321;1262;139621;-91
2023/02/16 09:38:27;;;;;;;133.90;46.20;;;;;;;4.17;100.00;100831.20;675095;1263;139107;-91
2023/02/16 09:53:38;;;;;;;160.40;54.00;;;;;;;4.35;100.00;100826.10;673810;1259;138950;-89
2023/02/16 10:08:54;;;;;;;151.10;53.90;;;;;;;4.28;100.00;100830.79;675066;1263;139111;-91
2023/02/16 10:24:04;;;;;;;176.30;64.80;;;;;;;4.33;100.00;100822.71;674673;1263;139562;-91
2023/02/16 10:39:37;;;;;;;173.00;57.60;;;;;;;4.62;100.00;100814.96;675819;1263;138881;-92
2023/02/16 10:54:40;;;;;;;162.10;55.60;;;;;;;4.72;100.00;100812.52;678094;1265;139289;-93
2023/02/16 11:09:46;;;;;;;194.60;69.20;;;;;;;4.85;100.00;100812.11;678706;1263;138022;-94
2023/02/16 11:24:50;;;;;;;208.60;75.20;;;;;;;5.18;100.00;100806.64;677368;1262;140196;-92
2023/02/16 11:39:57;;;;;;;173.60;60.20;;;;;;;5.68;100.00;100802.05;678599;1264;139009;-92
2023/02/16 11:55:08;;;;;;;;;;;;;;;5.90;99.94;100807.61;681346;1266;138488;-89
2023/02/16 12:10:20;;;;;;;211.60;78.00;;;;;;;6.10;99.89;100796.06;680877;1266;125414;-89
2023/02/16 12:42:42;;;;;;;199.50;72.30;;;;;;;6.65;98.60;100784.99;660519;1303;545666;-91
2023/02/16 12:58:07;;;;;;;195.50;79.70;;;;;;;7.45;96.88;100758.95;672625;1274;138007;-91
2023/02/16 13:13:16;;;;;;;143.90;58.00;;;;;;;8.85;93.51;100741.73;676064;1271;139141;-92
2023/02/16 13:28:41;;;;;;;133.90;50.70;;;;;;;9.88;91.69;100727.23;672841;1268;138456;-93
2023/02/16 13:43:54;;;;;;;144.50;59.40;;;;;;;12.21;87.13;100711.77;677142;1271;138065;-91
2023/02/16 13:59:19;;;;;;;131.90;61.60;;;;;;;15.93;79.74;100700.85;672649;1271;139177;-92
2023/02/16 14:14:33;;;;;;;153.40;62.30;;;;;;;19.15;71.40;100685.48;673631;1271;139049;-92
2023/02/16 14:29:55;;;;;;;214.30;96.10;;;;;;;16.60;68.60;100689.94;673141;1272;138698;-93
2023/02/16 14:45:30;;;;;;;168.00;75.60;;;;;;;14.13;70.33;100687.65;674592;1268;138585;-93
2023/02/16 15:00:54;;;;;;;181.80;76.80;;;;;;;13.88;70.63;100685.06;674187;1271;138680;-91
2023/02/16 15:16:01;;;;;;;167.00;69.30;;;;;;;12.25;72.50;100688.86;674139;1271;138857;-87
2023/02/16 15:31:17;;;;;;;160.20;72.20;;;;;;;11.62;74.79;100681.84;675809;1271;140037;-93
2023/02/16 15:46:30;;;;;;;160.10;74.10;;;;;;;10.85;76.49;100674.30;675829;1271;138692;-92
2023/02/16 16:01:34;;;;;;;121.80;58.50;;;;;;;9.79;77.90;100670.89;676978;1276;141962;-93
2023/02/16 16:16:42;;;;;;;140.50;56.60;;;;;;;8.96;81.05;100662.24;674270;1271;138585;-96
2023/02/16 16:31:52;;;;;;;119.50;51.40;;;;;;;8.37;83.33;100657.13;676183;1284;140264;-93
2023/02/16 16:46:55;;;;;;;182.20;76.10;;;;;;;8.25;83.95;100650.82;679269;1271;138213;-86
2023/02/16 17:02:37;;;;;;;190.90;75.80;;;;;;;7.89;84.81;100652.71;680084;1267;138336;31
2023/02/16 17:17:56;;;;;;;439.50;237.10;;;;;;;7.50;85.95;100658.52;678749;1273;137903;-85
2023/02/16 17:33:05;;;;;;;230.60;96.00;;;;;;;7.06;87.24;100659.23;678876;1274;138568;-89
2023/02/16 17:49:22;;;;;;;141.30;61.50;;;;;;;6.69;89.19;100657.52;679131;1272;138381;31
2023/02/16 18:04:48;;;;;;;75.50;34.00;;;;;;;6.68;91.43;100656.56;674883;1271;137934;31
2023/02/16 18:19:59;;;;;;;113.90;49.00;;;;;;;6.69;92.41;100660.65;674681;1276;138217;-86
2023/02/16 18:35:24;;;;;;;122.30;55.30;;;;;;;6.71;92.94;100666.77;668925;1279;137552;31
2023/02/16 18:50:45;;;;;;;111.20;49.30;;;;;;;6.63;94.25;100658.47;673557;1282;137397;-88
2023/02/16 19:05:56;;;;;;;132.00;62.60;;;;;;;6.58;94.59;100649.77;674196;1280;138226;-87
2023/02/16 19:21:12;;;;;;;114.70;50.20;;;;;;;6.62;94.79;100640.76;673459;1280;139196;-88
2023/02/16 19:36:41;;;;;;;;;;;;;;;;;;;;;
2023/02/16 19:51:51;;;;;;;125.20;52.50;;;;;;;6.60;95.22;100628.59;676886;1276;137999;-87
2023/02/16 20:07:07;;;;;;;;;;;;;;;;;;;;;
2023/02/16 20:22:28;;;;;;;117.30;50.90;;;;;;;6.43;94.77;100611.05;674375;1279;138012;-89
2023/02/16 20:37:37;;;;;;;122.00;53.50;;;;;;;6.48;94.32;100612.67;675044;1277;138387;-91
2023/02/16 20:52:59;;;;;;;129.60;53.50;;;;;;;6.46;94.59;100618.87;673114;1279;138336;-93
2023/02/16 21:08:07;;;;;;;108.00;48.30;;;;;;;6.43;94.92;100611.61;672104;1280;139502;-88
2023/02/16 21:23:11;;;;;;;111.60;46.60;;;;;;;6.54;95.30;100608.48;671842;1284;139080;-89
2023/02/16 21:38:16;;;;;;;97.70;44.80;;;;;;;6.61;95.02;100614.09;670403;1276;139083;-88
2023/02/16 21:53:23;;;;;;;100.50;45.10;;;;;;;6.78;94.96;100620.42;669950;1280;139578;-89
2023/02/16 22:08:26;;;;;;;106.80;46.50;;;;;;;6.67;96.08;100614.02;670326;1280;139706;-91
2023/02/16 22:23:30;;;;;;;123.00;50.80;;;;;;;6.70;98.18;100604.47;667991;1284;138959;-91
2023/02/16 22:38:33;;;;;;;124.10;50.20;;;;;;;6.83;98.16;100590.74;669735;1280;139424;-93
2023/02/16 22:53:36;;;;;;;103.00;46.60;;;;;;;6.87;99.60;100582.93;669356;1280;138505;-92
2023/02/16 23:08:41;;;;;;;101.40;46.30;;;;;;;6.82;99.85;100574.23;669587;1280;139256;-91
2023/02/16 23:23:45;;;;;;;100.50;46.20;;;;;;;6.88;100.00;100571.30;667728;1282;139469;-89
2023/02/16 23:38:49;;;;;;;107.20;46.30;;;;;;;6.88;100.00;100571.63;666979;1283;140326;-91
2023/02/16 23:53:52;;;;;;;103.70;49.30;;;;;;;6.88;100.00;100564.14;667174;1293;139532;-90
